sensor_id;sensor_type;location;lat;lon;timestamp;temperature;humidity
47861;HTU21D;33620;52.340;5.984;2023-03-20T00:01:39;9.64;85.22
47861;HTU21D;33620;52.340;5.984;2023-03-20T00:04:05;9.67;85.23
47861;HTU21D;33620;52.340;5.984;2023-03-20T00:06:30;9.67;85.28
47861;HTU21D;33620;52.340;5.984;2023-03-20T00:08:57;9.60;85.45
47861;HTU21D;33620;52.340;5.984;2023-03-20T00:11:29;9.55;85.67
47861;HTU21D;33620;52.340;5.984;2023-03-20T00:14:02;9.55;85.67
47861;HTU21D;33620;52.340;5.984;2023-03-20T00:16:33;9.55;85.76
47861;HTU21D;33620;52.340;5.984;2023-03-20T00:18:59;9.61;85.94
47861;HTU21D;33620;52.340;5.984;2023-03-20T00:21:24;9.42;85.63
47861;HTU21D;33620;52.340;5.984;2023-03-20T00:23:50;9.47;86.12
47861;HTU21D;33620;52.340;5.984;2023-03-20T00:26:17;9.46;85.83
47861;HTU21D;33620;52.340;5.984;2023-03-20T00:28:45;9.50;85.84
47861;HTU21D;33620;52.340;5.984;2023-03-20T00:31:34;9.51;85.87
47861;HTU21D;33620;52.340;5.984;2023-03-20T00:34:06;9.46;85.56
47861;HTU21D;33620;52.340;5.984;2023-03-20T00:36:34;9.44;85.77
47861;HTU21D;33620;52.340;5.984;2023-03-20T00:38:59;9.44;85.83
47861;HTU21D;33620;52.340;5.984;2023-03-20T00:41:30;9.30;85.83
47861;HTU21D;33620;52.340;5.984;2023-03-20T00:44:00;9.33;86.28
47861;HTU21D;33620;52.340;5.984;2023-03-20T00:46:26;9.39;86.16
47861;HTU21D;33620;52.340;5.984;2023-03-20T00:48:52;9.46;86.11
47861;HTU21D;33620;52.340;5.984;2023-03-20T00:51:18;9.47;85.69
47861;HTU21D;33620;52.340;5.984;2023-03-20T00:53:43;9.49;85.64
47861;HTU21D;33620;52.340;5.984;2023-03-20T00:58:51;9.45;85.30
47861;HTU21D;33620;52.340;5.984;2023-03-20T01:01:16;9.46;85.58
47861;HTU21D;33620;52.340;5.984;2023-03-20T01:03:42;9.48;85.39
47861;HTU21D;33620;52.340;5.984;2023-03-20T01:06:11;9.49;85.64
47861;HTU21D;33620;52.340;5.984;2023-03-20T01:08:36;9.46;85.26
47861;HTU21D;33620;52.340;5.984;2023-03-20T01:11:02;9.39;85.51
47861;HTU21D;33620;52.340;5.984;2023-03-20T01:13:29;9.33;85.63
47861;HTU21D;33620;52.340;5.984;2023-03-20T01:15:56;9.32;86.01
47861;HTU21D;33620;52.340;5.984;2023-03-20T01:18:26;9.31;85.96
47861;HTU21D;33620;52.340;5.984;2023-03-20T01:20:52;9.22;85.95
47861;HTU21D;33620;52.340;5.984;2023-03-20T01:23:18;9.20;86.27
47861;HTU21D;33620;52.340;5.984;2023-03-20T01:25:44;9.22;86.35
47861;HTU21D;33620;52.340;5.984;2023-03-20T01:28:21;9.21;86.22
47861;HTU21D;33620;52.340;5.984;2023-03-20T01:30:48;9.24;85.92
47861;HTU21D;33620;52.340;5.984;2023-03-20T01:33:15;9.20;85.86
47861;HTU21D;33620;52.340;5.984;2023-03-20T01:35:41;9.17;85.73
47861;HTU21D;33620;52.340;5.984;2023-03-20T01:38:18;9.18;85.83
47861;HTU21D;33620;52.340;5.984;2023-03-20T01:43:15;9.25;85.55
47861;HTU21D;33620;52.340;5.984;2023-03-20T01:51:27;9.33;85.60
47861;HTU21D;33620;52.340;5.984;2023-03-20T01:54:10;9.39;85.48
47861;HTU21D;33620;52.340;5.984;2023-03-20T01:56:45;9.36;84.84
47861;HTU21D;33620;52.340;5.984;2023-03-20T01:59:29;9.29;85.23
47861;HTU21D;33620;52.340;5.984;2023-03-20T02:01:56;9.33;85.37
47861;HTU21D;33620;52.340;5.984;2023-03-20T02:04:26;9.30;84.89
47861;HTU21D;33620;52.340;5.984;2023-03-20T02:06:53;9.22;85.20
47861;HTU21D;33620;52.340;5.984;2023-03-20T02:09:19;9.26;85.25
47861;HTU21D;33620;52.340;5.984;2023-03-20T02:11:45;9.27;85.20
47861;HTU21D;33620;52.340;5.984;2023-03-20T02:14:12;9.32;85.29
47861;HTU21D;33620;52.340;5.984;2023-03-20T02:16:37;9.38;85.16
47861;HTU21D;33620;52.340;5.984;2023-03-20T02:19:05;9.33;84.71
47861;HTU21D;33620;52.340;5.984;2023-03-20T02:27:32;9.41;84.58
47861;HTU21D;33620;52.340;5.984;2023-03-20T02:30:40;9.48;84.78
47861;HTU21D;33620;52.340;5.984;2023-03-20T02:47:04;9.61;83.23
47861;HTU21D;33620;52.340;5.984;2023-03-20T02:52:29;9.54;83.57
47861;HTU21D;33620;52.340;5.984;2023-03-20T03:00:30;9.51;82.76
47861;HTU21D;33620;52.340;5.984;2023-03-20T03:03:13;9.44;83.32
47861;HTU21D;33620;52.340;5.984;2023-03-20T03:08:13;9.39;83.42
47861;HTU21D;33620;52.340;5.984;2023-03-20T03:10:44;9.42;83.42
47861;HTU21D;33620;52.340;5.984;2023-03-20T03:13:14;9.42;82.92
47861;HTU21D;33620;52.340;5.984;2023-03-20T03:15:47;9.39;82.71
47861;HTU21D;33620;52.340;5.984;2023-03-20T03:18:18;9.33;83.04
47861;HTU21D;33620;52.340;5.984;2023-03-20T03:20:45;9.36;83.23
47861;HTU21D;33620;52.340;5.984;2023-03-20T03:23:27;9.42;83.23
47861;HTU21D;33620;52.340;5.984;2023-03-20T03:25:56;9.38;82.14
47861;HTU21D;33620;52.340;5.984;2023-03-20T03:28:36;9.38;82.49
47861;HTU21D;33620;52.340;5.984;2023-03-20T03:31:10;9.41;82.39
47861;HTU21D;33620;52.340;5.984;2023-03-20T03:33:39;9.41;82.36
47861;HTU21D;33620;52.340;5.984;2023-03-20T03:39:10;9.38;81.28
47861;HTU21D;33620;52.340;5.984;2023-03-20T03:44:18;9.42;81.97
47861;HTU21D;33620;52.340;5.984;2023-03-20T03:46:51;9.44;81.81
47861;HTU21D;33620;52.340;5.984;2023-03-20T03:49:46;9.41;81.21
47861;HTU21D;33620;52.340;5.984;2023-03-20T03:52:17;9.38;81.36
47861;HTU21D;33620;52.340;5.984;2023-03-20T03:54:48;9.36;81.21
47861;HTU21D;33620;52.340;5.984;2023-03-20T03:57:19;9.34;81.39
47861;HTU21D;33620;52.340;5.984;2023-03-20T03:59:49;9.35;81.21
47861;HTU21D;33620;52.340;5.984;2023-03-20T04:02:16;9.34;81.19
47861;HTU21D;33620;52.340;5.984;2023-03-20T04:04:46;9.35;81.04
47861;HTU21D;33620;52.340;5.984;2023-03-20T04:07:13;9.30;81.04
47861;HTU21D;33620;52.340;5.984;2023-03-20T04:09:39;9.26;80.97
47861;HTU21D;33620;52.340;5.984;2023-03-20T04:12:05;9.26;81.36
47861;HTU21D;33620;52.340;5.984;2023-03-20T04:14:31;9.27;81.36
47861;HTU21D;33620;52.340;5.984;2023-03-20T04:16:56;9.27;81.14
47861;HTU21D;33620;52.340;5.984;2023-03-20T04:19:22;9.29;81.30
47861;HTU21D;33620;52.340;5.984;2023-03-20T04:21:47;9.29;81.01
47861;HTU21D;33620;52.340;5.984;2023-03-20T04:24:12;9.24;80.81
47861;HTU21D;33620;52.340;5.984;2023-03-20T04:26:39;9.18;80.91
47861;HTU21D;33620;52.340;5.984;2023-03-20T04:29:05;9.19;81.23
47861;HTU21D;33620;52.340;5.984;2023-03-20T04:31:30;9.18;81.30
47861;HTU21D;33620;52.340;5.984;2023-03-20T04:33:56;9.18;81.00
47861;HTU21D;33620;52.340;5.984;2023-03-20T04:36:22;9.15;81.08
47861;HTU21D;33620;52.340;5.984;2023-03-20T04:38:47;9.15;80.69
47861;HTU21D;33620;52.340;5.984;2023-03-20T04:41:13;9.12;80.72
47861;HTU21D;33620;52.340;5.984;2023-03-20T04:43:39;9.08;80.41
47861;HTU21D;33620;52.340;5.984;2023-03-20T04:46:04;9.08;80.59
47861;HTU21D;33620;52.340;5.984;2023-03-20T04:48:30;9.05;80.28
47861;HTU21D;33620;52.340;5.984;2023-03-20T04:50:56;9.02;80.56
47861;HTU21D;33620;52.340;5.984;2023-03-20T04:53:21;9.01;80.30
47861;HTU21D;33620;52.340;5.984;2023-03-20T04:55:47;8.98;80.09
47861;HTU21D;33620;52.340;5.984;2023-03-20T04:58:13;8.97;80.43
47861;HTU21D;33620;52.340;5.984;2023-03-20T05:00:38;8.94;79.84
47861;HTU21D;33620;52.340;5.984;2023-03-20T05:03:03;8.95;80.34
47861;HTU21D;33620;52.340;5.984;2023-03-20T05:05:29;8.93;79.69
47861;HTU21D;33620;52.340;5.984;2023-03-20T05:07:55;8.85;79.95
47861;HTU21D;33620;52.340;5.984;2023-03-20T05:10:20;8.87;80.33
47861;HTU21D;33620;52.340;5.984;2023-03-20T05:12:46;8.87;80.04
47861;HTU21D;33620;52.340;5.984;2023-03-20T05:15:12;8.87;79.98
47861;HTU21D;33620;52.340;5.984;2023-03-20T05:17:37;8.82;80.11
47861;HTU21D;33620;52.340;5.984;2023-03-20T05:20:03;8.81;79.56
47861;HTU21D;33620;52.340;5.984;2023-03-20T05:22:29;8.81;79.98
47861;HTU21D;33620;52.340;5.984;2023-03-20T05:24:54;8.80;79.78
47861;HTU21D;33620;52.340;5.984;2023-03-20T05:27:20;8.77;79.76
47861;HTU21D;33620;52.340;5.984;2023-03-20T05:29:45;8.78;80.14
47861;HTU21D;33620;52.340;5.984;2023-03-20T05:32:11;8.79;79.85
47861;HTU21D;33620;52.340;5.984;2023-03-20T05:34:37;8.76;79.58
47861;HTU21D;33620;52.340;5.984;2023-03-20T05:37:02;8.75;80.03
47861;HTU21D;33620;52.340;5.984;2023-03-20T05:39:28;8.78;80.26
47861;HTU21D;33620;52.340;5.984;2023-03-20T05:41:53;8.82;80.08
47861;HTU21D;33620;52.340;5.984;2023-03-20T05:44:19;8.83;79.85
47861;HTU21D;33620;52.340;5.984;2023-03-20T05:46:44;8.81;79.47
47861;HTU21D;33620;52.340;5.984;2023-03-20T05:49:09;8.76;79.85
47861;HTU21D;33620;52.340;5.984;2023-03-20T05:51:35;8.78;79.81
47861;HTU21D;33620;52.340;5.984;2023-03-20T05:54:01;8.76;79.79
47861;HTU21D;33620;52.340;5.984;2023-03-20T05:56:26;8.76;80.11
47861;HTU21D;33620;52.340;5.984;2023-03-20T05:58:52;8.76;80.08
47861;HTU21D;33620;52.340;5.984;2023-03-20T06:01:17;8.75;79.85
47861;HTU21D;33620;52.340;5.984;2023-03-20T06:03:46;8.68;80.05
47861;HTU21D;33620;52.340;5.984;2023-03-20T06:06:12;8.70;80.44
47861;HTU21D;33620;52.340;5.984;2023-03-20T06:08:37;8.72;80.30
47861;HTU21D;33620;52.340;5.984;2023-03-20T06:11:03;8.75;80.52
47861;HTU21D;33620;52.340;5.984;2023-03-20T06:13:28;8.78;80.20
47861;HTU21D;33620;52.340;5.984;2023-03-20T06:15:54;8.82;80.53
47861;HTU21D;33620;52.340;5.984;2023-03-20T06:18:20;8.81;80.36
47861;HTU21D;33620;52.340;5.984;2023-03-20T06:20:45;8.78;80.53
47861;HTU21D;33620;52.340;5.984;2023-03-20T06:23:15;8.82;80.46
47861;HTU21D;33620;52.340;5.984;2023-03-20T06:25:41;8.83;80.53
47861;HTU21D;33620;52.340;5.984;2023-03-20T06:28:07;8.85;80.53
47861;HTU21D;33620;52.340;5.984;2023-03-20T06:30:32;8.82;80.59
47861;HTU21D;33620;52.340;5.984;2023-03-20T06:32:57;8.85;80.02
47861;HTU21D;33620;52.340;5.984;2023-03-20T06:35:23;8.82;80.44
47861;HTU21D;33620;52.340;5.984;2023-03-20T06:37:48;8.87;80.58
47861;HTU21D;33620;52.340;5.984;2023-03-20T06:40:13;8.88;80.32
47861;HTU21D;33620;52.340;5.984;2023-03-20T06:42:39;8.89;80.41
47861;HTU21D;33620;52.340;5.984;2023-03-20T06:45:05;8.88;80.20
47861;HTU21D;33620;52.340;5.984;2023-03-20T06:47:30;8.87;80.20
47861;HTU21D;33620;52.340;5.984;2023-03-20T06:49:56;8.85;80.05
47861;HTU21D;33620;52.340;5.984;2023-03-20T06:52:21;8.80;80.45
47861;HTU21D;33620;52.340;5.984;2023-03-20T06:54:47;8.82;80.37
47861;HTU21D;33620;52.340;5.984;2023-03-20T06:57:13;8.74;79.67
47861;HTU21D;33620;52.340;5.984;2023-03-20T06:59:38;8.73;80.49
47861;HTU21D;33620;52.340;5.984;2023-03-20T07:02:04;8.76;80.41
47861;HTU21D;33620;52.340;5.984;2023-03-20T07:04:30;8.76;80.05
47861;HTU21D;33620;52.340;5.984;2023-03-20T07:06:56;8.74;79.85
47861;HTU21D;33620;52.340;5.984;2023-03-20T07:09:21;8.73;79.96
47861;HTU21D;33620;52.340;5.984;2023-03-20T07:11:48;8.75;80.11
47861;HTU21D;33620;52.340;5.984;2023-03-20T07:14:13;8.79;80.18
47861;HTU21D;33620;52.340;5.984;2023-03-20T07:16:39;8.81;79.63
47861;HTU21D;33620;52.340;5.984;2023-03-20T07:19:05;8.79;79.59
47861;HTU21D;33620;52.340;5.984;2023-03-20T07:21:30;8.80;79.88
47861;HTU21D;33620;52.340;5.984;2023-03-20T07:23:56;8.83;79.77
47861;HTU21D;33620;52.340;5.984;2023-03-20T07:26:22;8.83;79.56
47861;HTU21D;33620;52.340;5.984;2023-03-20T07:28:47;8.88;80.01
47861;HTU21D;33620;52.340;5.984;2023-03-20T07:31:19;8.90;79.57
47861;HTU21D;33620;52.340;5.984;2023-03-20T07:33:44;8.93;79.50
47861;HTU21D;33620;52.340;5.984;2023-03-20T07:36:10;8.97;79.83
47861;HTU21D;33620;52.340;5.984;2023-03-20T07:38:35;9.00;79.53
47861;HTU21D;33620;52.340;5.984;2023-03-20T07:41:00;9.00;79.20
47861;HTU21D;33620;52.340;5.984;2023-03-20T07:43:26;9.03;79.16
47861;HTU21D;33620;52.340;5.984;2023-03-20T07:45:52;9.05;79.33
47861;HTU21D;33620;52.340;5.984;2023-03-20T07:48:17;9.05;78.82
47861;HTU21D;33620;52.340;5.984;2023-03-20T07:50:42;9.00;79.11
47861;HTU21D;33620;52.340;5.984;2023-03-20T07:53:08;8.98;79.61
47861;HTU21D;33620;52.340;5.984;2023-03-20T07:55:33;8.97;79.42
47861;HTU21D;33620;52.340;5.984;2023-03-20T07:57:59;8.97;79.41
47861;HTU21D;33620;52.340;5.984;2023-03-20T08:00:24;9.02;79.75
47861;HTU21D;33620;52.340;5.984;2023-03-20T08:02:50;9.01;79.78
47861;HTU21D;33620;52.340;5.984;2023-03-20T08:05:15;9.04;79.76
47861;HTU21D;33620;52.340;5.984;2023-03-20T08:07:40;9.00;79.30
47861;HTU21D;33620;52.340;5.984;2023-03-20T08:10:06;9.07;79.92
47861;HTU21D;33620;52.340;5.984;2023-03-20T08:12:33;9.14;80.46
47861;HTU21D;33620;52.340;5.984;2023-03-20T08:14:58;9.19;79.90
47861;HTU21D;33620;52.340;5.984;2023-03-20T08:17:24;9.19;80.38
47861;HTU21D;33620;52.340;5.984;2023-03-20T08:19:49;9.25;80.33
47861;HTU21D;33620;52.340;5.984;2023-03-20T08:22:15;9.26;79.32
47861;HTU21D;33620;52.340;5.984;2023-03-20T08:24:40;9.19;79.05
47861;HTU21D;33620;52.340;5.984;2023-03-20T08:27:06;9.08;80.01
47861;HTU21D;33620;52.340;5.984;2023-03-20T08:29:32;9.18;80.13
47861;HTU21D;33620;52.340;5.984;2023-03-20T08:31:57;9.22;80.01
47861;HTU21D;33620;52.340;5.984;2023-03-20T08:34:22;9.24;79.14
47861;HTU21D;33620;52.340;5.984;2023-03-20T08:36:48;9.18;79.10
47861;HTU21D;33620;52.340;5.984;2023-03-20T08:39:13;9.25;79.48
47861;HTU21D;33620;52.340;5.984;2023-03-20T08:41:39;9.31;79.41
47861;HTU21D;33620;52.340;5.984;2023-03-20T08:44:06;9.27;79.44
47861;HTU21D;33620;52.340;5.984;2023-03-20T08:46:32;9.27;79.68
47861;HTU21D;33620;52.340;5.984;2023-03-20T08:48:57;9.27;79.53
47861;HTU21D;33620;52.340;5.984;2023-03-20T08:51:23;9.25;79.89
47861;HTU21D;33620;52.340;5.984;2023-03-20T08:53:49;9.29;80.20
47861;HTU21D;33620;52.340;5.984;2023-03-20T08:56:14;9.22;80.38
47861;HTU21D;33620;52.340;5.984;2023-03-20T08:58:40;9.32;80.35
47861;HTU21D;33620;52.340;5.984;2023-03-20T09:01:06;9.22;80.30
47861;HTU21D;33620;52.340;5.984;2023-03-20T09:03:32;9.34;80.81
47861;HTU21D;33620;52.340;5.984;2023-03-20T09:05:58;9.37;80.38
47861;HTU21D;33620;52.340;5.984;2023-03-20T09:08:23;9.40;79.63
47861;HTU21D;33620;52.340;5.984;2023-03-20T09:10:49;9.42;79.21
47861;HTU21D;33620;52.340;5.984;2023-03-20T09:13:15;9.40;79.16
47861;HTU21D;33620;52.340;5.984;2023-03-20T09:15:41;9.33;78.91
47861;HTU21D;33620;52.340;5.984;2023-03-20T09:18:06;9.42;79.26
47861;HTU21D;33620;52.340;5.984;2023-03-20T09:20:32;9.35;78.56
47861;HTU21D;33620;52.340;5.984;2023-03-20T09:22:57;9.35;79.09
47861;HTU21D;33620;52.340;5.984;2023-03-20T09:25:22;9.42;79.56
47861;HTU21D;33620;52.340;5.984;2023-03-20T09:27:54;9.44;79.67
47861;HTU21D;33620;52.340;5.984;2023-03-20T09:30:20;9.50;80.02
47861;HTU21D;33620;52.340;5.984;2023-03-20T09:32:46;9.60;80.49
47861;HTU21D;33620;52.340;5.984;2023-03-20T09:35:12;9.44;78.37
47861;HTU21D;33620;52.340;5.984;2023-03-20T09:37:37;9.30;79.93
47861;HTU21D;33620;52.340;5.984;2023-03-20T09:40:03;9.46;80.81
47861;HTU21D;33620;52.340;5.984;2023-03-20T09:42:57;9.51;80.27
47861;HTU21D;33620;52.340;5.984;2023-03-20T09:48:29;9.21;77.85
47861;HTU21D;33620;52.340;5.984;2023-03-20T09:53:43;9.30;78.12
47861;HTU21D;33620;52.340;5.984;2023-03-20T09:56:20;9.41;77.92
47861;HTU21D;33620;52.340;5.984;2023-03-20T09:58:57;9.47;77.56
47861;HTU21D;33620;52.340;5.984;2023-03-20T10:01:28;9.49;76.92
47861;HTU21D;33620;52.340;5.984;2023-03-20T10:04:00;9.50;76.76
47861;HTU21D;33620;52.340;5.984;2023-03-20T10:06:26;9.54;77.39
47861;HTU21D;33620;52.340;5.984;2023-03-20T10:08:52;9.40;75.76
47861;HTU21D;33620;52.340;5.984;2023-03-20T10:11:37;9.53;76.50
47861;HTU21D;33620;52.340;5.984;2023-03-20T10:19:11;9.50;76.12
47861;HTU21D;33620;52.340;5.984;2023-03-20T10:21:49;9.49;76.70
47861;HTU21D;33620;52.340;5.984;2023-03-20T10:26:52;9.54;76.68
47861;HTU21D;33620;52.340;5.984;2023-03-20T10:32:19;9.46;77.60
47861;HTU21D;33620;52.340;5.984;2023-03-20T10:42:47;9.74;77.82
47861;HTU21D;33620;52.340;5.984;2023-03-20T10:45:24;9.76;77.28
47861;HTU21D;33620;52.340;5.984;2023-03-20T10:47:55;9.76;76.75
47861;HTU21D;33620;52.340;5.984;2023-03-20T10:50:25;9.82;76.53
47861;HTU21D;33620;52.340;5.984;2023-03-20T10:52:52;9.92;76.65
47861;HTU21D;33620;52.340;5.984;2023-03-20T10:55:22;10.03;76.43
47861;HTU21D;33620;52.340;5.984;2023-03-20T10:57:55;10.10;76.34
47861;HTU21D;33620;52.340;5.984;2023-03-20T11:00:23;9.98;76.34
47861;HTU21D;33620;52.340;5.984;2023-03-20T11:02:50;9.99;74.97
47861;HTU21D;33620;52.340;5.984;2023-03-20T11:05:33;9.92;76.18
47861;HTU21D;33620;52.340;5.984;2023-03-20T11:08:21;9.91;76.03
47861;HTU21D;33620;52.340;5.984;2023-03-20T11:10:57;9.90;75.81
47861;HTU21D;33620;52.340;5.984;2023-03-20T11:13:29;9.88;75.57
47861;HTU21D;33620;52.340;5.984;2023-03-20T11:15:55;10.04;75.28
47861;HTU21D;33620;52.340;5.984;2023-03-20T11:18:24;10.07;75.35
47861;HTU21D;33620;52.340;5.984;2023-03-20T11:20:56;10.23;75.63
47861;HTU21D;33620;52.340;5.984;2023-03-20T11:23:27;10.27;75.24
47861;HTU21D;33620;52.340;5.984;2023-03-20T11:26:12;10.20;75.83
47861;HTU21D;33620;52.340;5.984;2023-03-20T11:28:50;10.15;76.42
47861;HTU21D;33620;52.340;5.984;2023-03-20T11:31:30;10.09;76.04
47861;HTU21D;33620;52.340;5.984;2023-03-20T11:36:39;10.01;77.58
47861;HTU21D;33620;52.340;5.984;2023-03-20T11:39:11;9.86;77.51
47861;HTU21D;33620;52.340;5.984;2023-03-20T11:41:49;10.04;78.75
47861;HTU21D;33620;52.340;5.984;2023-03-20T11:44:34;10.10;77.00
47861;HTU21D;33620;52.340;5.984;2023-03-20T11:47:25;10.12;77.85
47861;HTU21D;33620;52.340;5.984;2023-03-20T11:49:56;10.15;77.81
47861;HTU21D;33620;52.340;5.984;2023-03-20T11:52:23;10.07;77.31
47861;HTU21D;33620;52.340;5.984;2023-03-20T11:54:51;9.94;77.95
47861;HTU21D;33620;52.340;5.984;2023-03-20T12:00:05;10.13;78.44
47861;HTU21D;33620;52.340;5.984;2023-03-20T12:02:31;9.99;77.94
47861;HTU21D;33620;52.340;5.984;2023-03-20T12:05:00;10.05;78.51
47861;HTU21D;33620;52.340;5.984;2023-03-20T12:07:35;9.89;76.66
47861;HTU21D;33620;52.340;5.984;2023-03-20T12:10:05;10.05;78.88
47861;HTU21D;33620;52.340;5.984;2023-03-20T12:12:48;10.18;79.72
47861;HTU21D;33620;52.340;5.984;2023-03-20T12:15:22;10.19;79.88
47861;HTU21D;33620;52.340;5.984;2023-03-20T12:20:37;10.14;79.19
47861;HTU21D;33620;52.340;5.984;2023-03-20T12:28:28;9.95;82.85
47861;HTU21D;33620;52.340;5.984;2023-03-20T12:36:15;9.75;83.71
47861;HTU21D;33620;52.340;5.984;2023-03-20T12:38:42;9.66;83.87
47861;HTU21D;33620;52.340;5.984;2023-03-20T12:41:12;9.70;84.53
47861;HTU21D;33620;52.340;5.984;2023-03-20T12:44:13;9.54;84.50
47861;HTU21D;33620;52.340;5.984;2023-03-20T12:58:03;9.70;86.41
47861;HTU21D;33620;52.340;5.984;2023-03-20T13:00:41;9.70;86.61
47861;HTU21D;33620;52.340;5.984;2023-03-20T13:08:55;9.66;87.24
47861;HTU21D;33620;52.340;5.984;2023-03-20T13:14:25;9.68;87.66
47861;HTU21D;33620;52.340;5.984;2023-03-20T13:16:58;9.64;87.98
47861;HTU21D;33620;52.340;5.984;2023-03-20T13:22:18;9.65;88.12
47861;HTU21D;33620;52.340;5.984;2023-03-20T13:24:49;9.70;88.61
47861;HTU21D;33620;52.340;5.984;2023-03-20T13:27:24;9.77;89.10
47861;HTU21D;33620;52.340;5.984;2023-03-20T13:32:47;9.81;89.69
47861;HTU21D;33620;52.340;5.984;2023-03-20T13:37:58;9.90;89.62
47861;HTU21D;33620;52.340;5.984;2023-03-20T13:40:28;9.77;89.09
47861;HTU21D;33620;52.340;5.984;2023-03-20T13:45:44;9.83;90.02
47861;HTU21D;33620;52.340;5.984;2023-03-20T13:48:39;9.78;89.25
47861;HTU21D;33620;52.340;5.984;2023-03-20T13:51:31;9.81;90.04
47861;HTU21D;33620;52.340;5.984;2023-03-20T13:54:26;9.83;90.08
47861;HTU21D;33620;52.340;5.984;2023-03-20T13:59:49;9.79;90.46
47861;HTU21D;33620;52.340;5.984;2023-03-20T14:02:59;9.84;90.73
47861;HTU21D;33620;52.340;5.984;2023-03-20T14:05:20;9.75;89.76
47861;HTU21D;33620;52.340;5.984;2023-03-20T14:07:49;9.62;90.65
47861;HTU21D;33620;52.340;5.984;2023-03-20T14:12:57;9.61;91.27
47861;HTU21D;33620;52.340;5.984;2023-03-20T14:15:31;9.67;91.53
47861;HTU21D;33620;52.340;5.984;2023-03-20T14:18:02;9.67;91.37
47861;HTU21D;33620;52.340;5.984;2023-03-20T14:20:31;9.72;91.38
47861;HTU21D;33620;52.340;5.984;2023-03-20T14:22:57;9.68;91.11
47861;HTU21D;33620;52.340;5.984;2023-03-20T14:25:23;9.71;91.46
47861;HTU21D;33620;52.340;5.984;2023-03-20T14:28:06;9.65;91.31
47861;HTU21D;33620;52.340;5.984;2023-03-20T14:30:43;9.66;91.60
47861;HTU21D;33620;52.340;5.984;2023-03-20T14:35:45;9.77;91.87
47861;HTU21D;33620;52.340;5.984;2023-03-20T14:41:04;9.79;91.90
47861;HTU21D;33620;52.340;5.984;2023-03-20T14:43:41;9.81;91.88
47861;HTU21D;33620;52.340;5.984;2023-03-20T14:46:47;9.79;91.51
47861;HTU21D;33620;52.340;5.984;2023-03-20T14:55:32;9.83;92.51
47861;HTU21D;33620;52.340;5.984;2023-03-20T14:58:03;9.86;92.49
47861;HTU21D;33620;52.340;5.984;2023-03-20T15:00:33;9.85;92.26
47861;HTU21D;33620;52.340;5.984;2023-03-20T15:03:09;9.81;92.10
47861;HTU21D;33620;52.340;5.984;2023-03-20T15:05:37;9.77;92.09
47861;HTU21D;33620;52.340;5.984;2023-03-20T15:08:09;9.68;92.23
47861;HTU21D;33620;52.340;5.984;2023-03-20T15:10:43;9.67;92.75
47861;HTU21D;33620;52.340;5.984;2023-03-20T15:13:10;9.68;93.04
47861;HTU21D;33620;52.340;5.984;2023-03-20T15:15:37;9.66;92.95
47861;HTU21D;33620;52.340;5.984;2023-03-20T15:18:10;9.63;92.98
47861;HTU21D;33620;52.340;5.984;2023-03-20T15:20:36;9.67;93.33
47861;HTU21D;33620;52.340;5.984;2023-03-20T15:23:02;9.67;93.49
47861;HTU21D;33620;52.340;5.984;2023-03-20T15:25:38;9.74;93.40
47861;HTU21D;33620;52.340;5.984;2023-03-20T15:28:05;9.72;93.17
47861;HTU21D;33620;52.340;5.984;2023-03-20T15:30:36;9.66;92.95
47861;HTU21D;33620;52.340;5.984;2023-03-20T15:33:02;9.62;92.86
47861;HTU21D;33620;52.340;5.984;2023-03-20T15:35:28;9.60;93.03
47861;HTU21D;33620;52.340;5.984;2023-03-20T15:37:56;9.63;93.38
47861;HTU21D;33620;52.340;5.984;2023-03-20T15:40:28;9.68;93.56
47861;HTU21D;33620;52.340;5.984;2023-03-20T15:43:03;9.65;93.16
47861;HTU21D;33620;52.340;5.984;2023-03-20T15:45:32;9.65;93.21
47861;HTU21D;33620;52.340;5.984;2023-03-20T15:48:11;9.64;93.54
47861;HTU21D;33620;52.340;5.984;2023-03-20T15:50:39;9.67;93.53
47861;HTU21D;33620;52.340;5.984;2023-03-20T15:53:07;9.63;93.41
47861;HTU21D;33620;52.340;5.984;2023-03-20T15:55:36;9.56;93.15
47861;HTU21D;33620;52.340;5.984;2023-03-20T15:58:02;9.51;93.32
47861;HTU21D;33620;52.340;5.984;2023-03-20T16:00:29;9.52;93.74
47861;HTU21D;33620;52.340;5.984;2023-03-20T16:02:56;9.54;93.75
47861;HTU21D;33620;52.340;5.984;2023-03-20T16:05:25;9.52;93.48
47861;HTU21D;33620;52.340;5.984;2023-03-20T16:07:52;9.55;93.77
47861;HTU21D;33620;52.340;5.984;2023-03-20T16:12:48;9.64;93.79
47861;HTU21D;33620;52.340;5.984;2023-03-20T16:15:16;9.69;93.82
47861;HTU21D;33620;52.340;5.984;2023-03-20T16:17:42;9.72;93.59
47861;HTU21D;33620;52.340;5.984;2023-03-20T16:20:13;9.74;93.59
47861;HTU21D;33620;52.340;5.984;2023-03-20T16:22:40;9.74;93.42
47861;HTU21D;33620;52.340;5.984;2023-03-20T16:25:12;9.74;93.50
47861;HTU21D;33620;52.340;5.984;2023-03-20T16:27:38;9.72;93.42
47861;HTU21D;33620;52.340;5.984;2023-03-20T16:30:07;9.68;92.95
47861;HTU21D;33620;52.340;5.984;2023-03-20T16:32:37;9.65;93.49
47861;HTU21D;33620;52.340;5.984;2023-03-20T16:35:28;9.68;93.40
47861;HTU21D;33620;52.340;5.984;2023-03-20T16:37:57;9.63;93.32
47861;HTU21D;33620;52.340;5.984;2023-03-20T16:40:33;9.57;93.27
47861;HTU21D;33620;52.340;5.984;2023-03-20T16:43:06;9.57;93.65
47861;HTU21D;33620;52.340;5.984;2023-03-20T16:45:35;9.54;93.59
47861;HTU21D;33620;52.340;5.984;2023-03-20T16:50:40;9.53;94.03
47861;HTU21D;33620;52.340;5.984;2023-03-20T16:53:13;9.51;94.00
47861;HTU21D;33620;52.340;5.984;2023-03-20T16:55:45;9.51;94.29
47861;HTU21D;33620;52.340;5.984;2023-03-20T16:58:16;9.53;94.39
47861;HTU21D;33620;52.340;5.984;2023-03-20T17:00:51;9.51;94.24
47861;HTU21D;33620;52.340;5.984;2023-03-20T17:03:17;9.52;94.64
47861;HTU21D;33620;52.340;5.984;2023-03-20T17:05:47;9.52;94.40
47861;HTU21D;33620;52.340;5.984;2023-03-20T17:08:15;9.50;94.38
47861;HTU21D;33620;52.340;5.984;2023-03-20T17:10:49;9.50;94.62
47861;HTU21D;33620;52.340;5.984;2023-03-20T17:13:15;9.50;94.85
47861;HTU21D;33620;52.340;5.984;2023-03-20T17:15:40;9.50;94.77
47861;HTU21D;33620;52.340;5.984;2023-03-20T17:18:12;9.50;94.62
47861;HTU21D;33620;52.340;5.984;2023-03-20T17:20:38;9.48;94.72
47861;HTU21D;33620;52.340;5.984;2023-03-20T17:23:09;9.49;94.88
47861;HTU21D;33620;52.340;5.984;2023-03-20T17:25:35;9.51;94.97
47861;HTU21D;33620;52.340;5.984;2023-03-20T17:28:01;9.54;94.85
47861;HTU21D;33620;52.340;5.984;2023-03-20T17:30:26;9.52;94.88
47861;HTU21D;33620;52.340;5.984;2023-03-20T17:32:52;9.51;94.86
47861;HTU21D;33620;52.340;5.984;2023-03-20T17:35:17;9.52;94.82
47861;HTU21D;33620;52.340;5.984;2023-03-20T17:37:43;9.53;94.91
47861;HTU21D;33620;52.340;5.984;2023-03-20T17:40:20;9.51;94.74
47861;HTU21D;33620;52.340;5.984;2023-03-20T17:42:46;9.49;94.85
47861;HTU21D;33620;52.340;5.984;2023-03-20T17:45:14;9.50;95.01
47861;HTU21D;33620;52.340;5.984;2023-03-20T17:47:40;9.48;95.19
47861;HTU21D;33620;52.340;5.984;2023-03-20T17:50:15;9.50;95.17
47861;HTU21D;33620;52.340;5.984;2023-03-20T17:52:41;9.49;95.04
47861;HTU21D;33620;52.340;5.984;2023-03-20T17:55:06;9.51;94.98
47861;HTU21D;33620;52.340;5.984;2023-03-20T17:57:34;9.51;95.04
47861;HTU21D;33620;52.340;5.984;2023-03-20T18:00:00;9.50;95.08
47861;HTU21D;33620;52.340;5.984;2023-03-20T18:02:26;9.50;95.24
47861;HTU21D;33620;52.340;5.984;2023-03-20T18:04:51;9.51;95.17
47861;HTU21D;33620;52.340;5.984;2023-03-20T18:07:18;9.52;95.26